Olgethorpe, Georgia
Current Conditions -  °F | °C
As of 4:55 PM on Monday 22 Dec 2014 (Local Time) from KACJ Reporting Station
Moderate Fog Moderate Fog  
Wind Chill: 50°   Ceiling: 300
Heat Index: 50°   Visibility: 0.25mi
Dew Point: 50°   Wind: 7mph
Humidity: 100%   Direction: 80°E
Pressure: 29.91"   Gusts: NA
Location:  32.266°N, 84.1148°W
Report Text: KACJ 222155Z AUTO 08006KT 1/4SM FG OVC003 10/10 A2991 RMK AO2 LTG DSNT SE
Loading
Personal Weather Stations






























Interactive Weather Map New forecast layout! Learn more

10-Day Weather Forecast

Advertisements
Track Severe Weather on mobile